Time;durP1;ratioP1;P1;durP2;ratioP2;P2;SDS_P1;SDS_P2;PMS_P1;PMS_P2;Temp;Humidity;BMP_temperature;BMP_pressure;BME280_temperature;BME280_humidity;BME280_pressure;Samples;Min_cycle;Max_cycle;Signal;HPM_P1;HPM_P2
2023/12/11 00:01:59;;;;;;;35.50;5.75;;;8.60;99.90;;;;;;5070691;28;20092;-81
2023/12/11 00:04:24;;;;;;;42.05;5.57;;;8.60;99.90;;;;;;5070684;28;20115;-83
2023/12/11 00:06:50;;;;;;;50.85;5.88;;;8.60;99.90;;;;;;5069774;28;20690;-84
2023/12/11 00:09:15;;;;;;;41.42;5.35;;;8.60;99.90;;;;;;5052573;28;20051;-84
2023/12/11 00:11:41;;;;;;;45.58;6.00;;;8.60;99.90;;;;;;5070701;28;20052;-83
2023/12/11 00:14:07;;;;;;;38.60;5.05;;;8.70;99.90;;;;;;5071060;28;20510;-83
2023/12/11 00:16:32;;;;;;;45.10;7.03;;;8.60;99.90;;;;;;5070851;28;20033;-80
2023/12/11 00:19:01;;;;;;;39.22;5.72;;;8.60;99.90;;;;;;5071587;28;20045;-87
2023/12/11 00:21:27;;;;;;;50.60;6.38;;;8.60;99.90;;;;;;5069635;28;20573;-82
2023/12/11 00:23:53;;;;;;;40.65;5.68;;;8.60;99.90;;;;;;5069200;28;20106;-85
2023/12/11 00:26:19;;;;;;;40.25;6.25;;;8.60;99.90;;;;;;5071049;28;20041;-89
2023/12/11 00:28:47;;;;;;;51.47;6.20;;;8.70;99.90;;;;;;5069162;28;20051;-82
2023/12/11 00:31:13;;;;;;;56.33;6.18;;;8.70;99.90;;;;;;5070885;28;20041;-81
2023/12/11 00:33:38;;;;;;;56.03;8.00;;;8.70;99.90;;;;;;5069127;28;20410;-80
2023/12/11 00:36:04;;;;;;;46.13;7.07;;;8.80;99.90;;;;;;5071120;28;20124;-82
2023/12/11 00:38:31;;;;;;;49.40;6.97;;;8.80;99.90;;;;;;5069499;28;20373;-82
2023/12/11 00:40:57;;;;;;;37.55;6.22;;;8.80;99.90;;;;;;5061551;28;20143;-82
2023/12/11 00:43:22;;;;;;;40.13;5.85;;;8.80;99.90;;;;;;5068957;28;20472;-80
2023/12/11 00:45:48;;;;;;;46.53;7.50;;;8.80;99.90;;;;;;5071861;28;20080;-83
2023/12/11 00:48:14;;;;;;;48.28;6.50;;;8.90;99.90;;;;;;5089953;28;20048;-81
2023/12/11 00:50:40;;;;;;;37.88;5.70;;;8.80;99.90;;;;;;5090720;28;20040;-81
2023/12/11 00:53:05;;;;;;;46.92;6.40;;;8.80;99.90;;;;;;5089868;28;20106;-81
2023/12/11 00:55:31;;;;;;;43.90;6.45;;;8.90;99.90;;;;;;5072099;28;20040;-82
2023/12/11 00:58:00;;;;;;;43.33;7.13;;;8.90;99.90;;;;;;5072293;28;20044;-85
2023/12/11 01:00:25;;;;;;;46.80;6.68;;;8.80;99.90;;;;;;5055825;28;20040;-92
2023/12/11 01:02:51;;;;;;;65.55;7.75;;;8.90;99.90;;;;;;5090560;28;20039;-84
2023/12/11 01:05:17;;;;;;;46.80;6.50;;;8.90;99.90;;;;;;5090515;28;20093;-87
2023/12/11 01:07:43;;;;;;;46.92;6.63;;;8.80;99.90;;;;;;5072559;28;20063;-83
2023/12/11 01:10:09;;;;;;;41.65;6.72;;;8.80;99.90;;;;;;5093199;28;20496;-80
2023/12/11 01:12:36;;;;;;;53.47;6.78;;;8.80;99.90;;;;;;5075311;28;20083;-81
2023/12/11 01:15:02;;;;;;;42.17;6.07;;;8.80;99.90;;;;;;5093649;28;20068;-83
2023/12/11 01:17:28;;;;;;;42.17;6.13;;;8.80;99.90;;;;;;5101269;28;20044;-83
2023/12/11 01:19:53;;;;;;;50.78;6.97;;;8.80;99.90;;;;;;5093777;28;20048;-82
2023/12/11 01:22:19;;;;;;;39.90;6.15;;;8.80;99.90;;;;;;5093502;28;20387;-81
2023/12/11 01:24:45;;;;;;;44.15;6.38;;;8.80;99.90;;;;;;5094101;28;20606;-81
2023/12/11 01:27:10;;;;;;;36.72;6.10;;;8.80;99.90;;;;;;5094374;28;20047;-84
2023/12/11 01:29:36;;;;;;;48.95;6.28;;;8.80;99.90;;;;;;5075292;28;20044;-86
2023/12/11 01:32:02;;;;;;;43.45;5.82;;;8.80;99.90;;;;;;5093389;28;20036;-88
2023/12/11 01:34:28;;;;;;;42.53;5.63;;;8.90;99.90;;;;;;5093589;28;20044;-81
2023/12/11 01:36:54;;;;;;;32.00;5.68;;;8.90;99.90;;;;;;5092826;28;20109;-81
2023/12/11 01:39:20;;;;;;;41.50;6.55;;;8.90;99.90;;;;;;5075141;28;20050;-82
2023/12/11 01:41:46;;;;;;;41.65;5.40;;;8.90;99.90;;;;;;5092073;28;20044;-81
2023/12/11 01:44:12;;;;;;;47.25;6.03;;;8.80;99.90;;;;;;5075185;28;20403;-84
2023/12/11 01:46:39;;;;;;;44.25;5.55;;;8.80;99.90;;;;;;5074584;28;20479;-87
2023/12/11 01:49:04;;;;;;;33.60;5.10;;;8.90;99.90;;;;;;5074229;28;20569;-79
2023/12/11 01:51:30;;;;;;;45.72;6.43;;;8.80;99.90;;;;;;5091876;28;20036;-81
2023/12/11 01:53:56;;;;;;;38.88;5.05;;;8.90;99.90;;;;;;5073868;28;20131;-82
2023/12/11 01:56:22;;;;;;;40.67;6.97;;;8.80;99.90;;;;;;5092769;28;20462;-81
2023/12/11 01:58:48;;;;;;;42.55;6.05;;;9.10;99.90;;;;;;5075475;28;20117;-90
2023/12/11 02:01:16;;;;;;;44.40;5.88;;;8.80;99.90;;;;;;5093618;28;20071;-82
2023/12/11 02:03:42;;;;;;;41.40;5.63;;;8.80;99.90;;;;;;5074447;28;20051;-84
2023/12/11 02:06:07;;;;;;;45.85;5.40;;;9.10;99.90;;;;;;5075112;28;20040;-87
2023/12/11 02:08:33;;;;;;;48.47;6.35;;;8.80;99.90;;;;;;5092555;28;20495;-86
2023/12/11 02:11:00;;;;;;;40.35;5.25;;;8.80;99.90;;;;;;5074606;28;20090;-90
2023/12/11 02:13:26;;;;;;;28.00;4.65;;;9.00;99.90;;;;;;5073967;28;20051;-86
2023/12/11 02:15:51;;;;;;;45.58;5.75;;;8.80;99.90;;;;;;5093349;28;20044;-87
2023/12/11 02:18:17;;;;;;;48.72;6.60;;;8.80;99.90;;;;;;5074783;28;20054;-82
2023/12/11 02:20:44;;;;;;;43.63;6.45;;;8.80;99.90;;;;;;5093702;28;20056;-81
2023/12/11 02:23:41;;;;;;;43.20;5.47;;;8.70;99.90;;;;;;5074644;28;20138;-82
2023/12/11 02:26:10;;;;;;;42.00;5.55;;;8.70;99.90;;;;;;5087904;28;20083;-82
2023/12/11 02:28:36;;;;;;;46.17;5.80;;;8.70;99.90;;;;;;5074351;28;20495;-88
2023/12/11 02:31:02;;;;;;;38.58;6.45;;;8.80;99.90;;;;;;5093094;28;20051;-82
2023/12/11 02:33:28;;;;;;;50.40;7.22;;;8.80;99.90;;;;;;5073995;28;20040;-85
2023/12/11 02:35:53;;;;;;;52.50;6.30;;;8.90;99.90;;;;;;5073173;28;20075;-81
2023/12/11 02:38:19;;;;;;;43.33;7.00;;;8.90;99.90;;;;;;5074181;28;20073;-84
2023/12/11 02:40:45;;;;;;;38.33;5.30;;;8.80;99.90;;;;;;5092591;28;20044;-86
2023/12/11 02:43:10;;;;;;;58.35;6.53;;;8.90;99.90;;;;;;5091960;28;20036;-82
2023/12/11 02:45:36;;;;;;;47.78;7.15;;;8.90;99.90;;;;;;5092066;28;20585;-83
2023/12/11 02:48:04;;;;;;;62.03;7.20;;;8.80;99.90;;;;;;5092997;28;20052;-88
2023/12/11 02:50:33;;;;;;;45.72;6.82;;;8.90;99.90;;;;;;5074766;28;20040;-83
2023/12/11 02:53:01;;;;;;;53.65;6.90;;;8.90;99.90;;;;;;5092911;28;20558;-90
2023/12/11 02:55:27;;;;;;;56.20;8.65;;;8.90;99.90;;;;;;5092007;28;20052;-89
2023/12/11 02:57:59;;;;;;;53.22;6.22;;;8.90;99.90;;;;;;5058463;28;20055;-82
2023/12/11 03:00:26;;;;;;;51.67;8.05;;;8.80;99.90;;;;;;5074400;28;20036;-91
2023/12/11 03:02:52;;;;;;;51.80;8.10;;;8.90;99.90;;;;;;5075937;28;20051;-82
2023/12/11 03:05:18;;;;;;;46.00;7.93;;;8.90;99.90;;;;;;5073462;28;20048;-87
2023/12/11 03:07:43;;;;;;;34.78;6.20;;;8.90;99.90;;;;;;5092668;28;20156;-81
2023/12/11 03:10:09;;;;;;;47.88;7.00;;;8.90;99.90;;;;;;5092115;28;20086;-84
2023/12/11 03:12:35;;;;;;;53.80;7.40;;;8.90;99.90;;;;;;5073667;28;20043;-83
2023/12/11 03:15:02;;;;;;;59.20;8.00;;;9.10;99.90;;;;;;5072269;28;20058;-83
2023/12/11 03:17:28;;;;;;;51.40;8.02;;;8.90;99.90;;;;;;5071385;28;20119;-85
2023/12/11 03:19:53;;;;;;;50.08;7.00;;;8.90;99.90;;;;;;5072323;28;20151;-82
2023/12/11 03:22:19;;;;;;;52.70;7.10;;;8.90;99.90;;;;;;5090131;28;20059;-81
2023/12/11 03:24:46;;;;;;;59.05;9.13;;;8.90;99.90;;;;;;5069666;28;20051;-87
2023/12/11 03:27:12;;;;;;;55.83;7.30;;;8.90;99.90;;;;;;5071344;28;20115;-88
2023/12/11 03:29:37;;;;;;;54.58;8.70;;;9.00;99.90;;;;;;5090180;28;20124;-84
2023/12/11 03:32:03;;;;;;;54.30;7.22;;;8.90;99.90;;;;;;5072176;28;20051;-82
2023/12/11 03:34:29;;;;;;;42.75;6.55;;;9.00;99.90;;;;;;5072239;28;20525;-83
2023/12/11 03:36:54;;;;;;;66.68;7.93;;;9.00;99.90;;;;;;5091008;28;20377;-86
2023/12/11 03:39:20;;;;;;;58.28;7.63;;;9.00;99.90;;;;;;5090952;28;20048;-84
2023/12/11 03:41:46;;;;;;;49.63;6.07;;;9.10;99.90;;;;;;5090675;28;20166;-82
2023/12/11 03:44:12;;;;;;;43.75;6.38;;;9.10;99.90;;;;;;5072411;28;20044;-82
2023/12/11 03:46:38;;;;;;;48.67;8.30;;;9.00;99.90;;;;;;5054771;28;20060;-84
2023/12/11 03:49:03;;;;;;;52.50;7.47;;;9.10;99.90;;;;;;5091053;28;20148;-85
2023/12/11 03:51:29;;;;;;;51.30;6.55;;;9.10;99.90;;;;;;5090304;28;20044;-85
2023/12/11 03:53:55;;;;;;;49.42;7.32;;;9.10;99.90;;;;;;5072224;28;20036;-81
2023/12/11 03:56:20;;;;;;;49.90;6.55;;;9.10;99.90;;;;;;5072022;28;20065;-85
2023/12/11 03:58:46;;;;;;;50.55;6.95;;;9.10;99.90;;;;;;5090750;28;20057;-83
2023/12/11 04:01:11;;;;;;;51.05;7.60;;;9.10;99.90;;;;;;5090170;28;20622;-88
2023/12/11 04:03:37;;;;;;;48.00;7.45;;;9.20;99.90;;;;;;5090100;28;20044;-85
2023/12/11 04:06:03;;;;;;;63.15;7.30;;;9.20;99.90;;;;;;5090349;28;20486;-80
2023/12/11 04:08:29;;;;;;;48.28;7.53;;;9.20;99.90;;;;;;5090983;28;20048;-81
2023/12/11 04:10:54;;;;;;;57.85;7.40;;;9.20;99.90;;;;;;5055652;28;20048;-84
2023/12/11 04:13:20;;;;;;;55.03;7.43;;;9.20;99.90;;;;;;5072165;28;20059;-84
2023/12/11 04:15:46;;;;;;;46.88;6.75;;;9.20;99.90;;;;;;5072129;28;20516;-82
2023/12/11 04:18:11;;;;;;;47.25;7.82;;;9.20;99.90;;;;;;5054891;28;20032;-83
2023/12/11 04:20:37;;;;;;;53.75;7.50;;;9.20;99.90;;;;;;5090563;28;20040;-81
2023/12/11 04:23:02;;;;;;;45.95;6.88;;;9.20;99.90;;;;;;5090507;28;20043;-81
2023/12/11 04:25:28;;;;;;;45.58;7.15;;;9.10;99.90;;;;;;5072855;28;20059;-84
2023/12/11 04:27:54;;;;;;;48.83;7.18;;;9.20;99.90;;;;;;5089843;28;20050;-85
2023/12/11 04:30:19;;;;;;;42.05;7.38;;;9.10;99.90;;;;;;5073535;28;20133;-88
2023/12/11 04:32:45;;;;;;;53.47;7.93;;;9.20;99.90;;;;;;5090833;28;20051;-85
2023/12/11 04:35:11;;;;;;;47.83;8.15;;;9.20;99.90;;;;;;5090142;28;20631;-80
2023/12/11 04:37:37;;;;;;;52.03;7.00;;;9.20;99.90;;;;;;5089875;28;20513;-80
2023/12/11 04:40:03;;;;;;;43.63;6.28;;;9.20;99.90;;;;;;5071072;28;20056;-83
2023/12/11 04:42:28;;;;;;;39.60;5.55;;;9.20;99.90;;;;;;5090608;28;20103;-87
2023/12/11 04:44:54;;;;;;;44.08;5.68;;;9.20;99.90;;;;;;5092489;28;20044;-82
2023/12/11 04:47:20;;;;;;;54.60;7.55;;;9.20;99.90;;;;;;5076125;28;20113;-82
2023/12/11 04:49:46;;;;;;;42.35;6.15;;;9.10;99.90;;;;;;5074928;28;20123;-82
2023/12/11 04:52:11;;;;;;;51.45;6.05;;;9.10;99.90;;;;;;5076117;28;20562;-82
2023/12/11 04:54:37;;;;;;;49.20;6.25;;;9.10;99.90;;;;;;5094104;28;20040;-83
2023/12/11 04:57:03;;;;;;;42.75;6.10;;;9.10;99.90;;;;;;5059105;28;20399;-84
2023/12/11 04:59:28;;;;;;;46.35;6.05;;;9.00;99.90;;;;;;5094989;28;20076;-86
2023/12/11 05:01:54;;;;;;;48.92;6.50;;;9.00;99.90;;;;;;5094698;28;20039;-81
2023/12/11 05:04:20;;;;;;;49.13;7.07;;;9.00;99.90;;;;;;5077286;28;20402;-86
2023/12/11 05:06:45;;;;;;;42.17;6.10;;;9.00;99.90;;;;;;5093325;28;20368;-84
2023/12/11 05:09:11;;;;;;;41.38;5.18;;;9.00;99.90;;;;;;5076819;28;20065;-86
2023/12/11 05:11:37;;;;;;;46.65;6.63;;;8.90;99.90;;;;;;5093666;28;20534;-82
2023/12/11 05:14:02;;;;;;;49.85;5.95;;;9.00;99.90;;;;;;5075350;28;20426;-84
2023/12/11 05:16:28;;;;;;;44.10;6.13;;;9.00;99.90;;;;;;5076780;28;20059;-84
2023/12/11 05:18:54;;;;;;;45.22;6.00;;;9.00;99.90;;;;;;5094643;28;20044;-82
2023/12/11 05:21:19;;;;;;;44.33;6.65;;;9.00;99.90;;;;;;5075816;28;20094;-82
2023/12/11 05:23:46;;;;;;;52.75;6.28;;;9.00;99.90;;;;;;5075739;28;20056;-90
2023/12/11 05:26:18;;;;;;;45.17;6.93;;;9.00;99.90;;;;;;5075430;28;20066;-89
2023/12/11 05:28:44;;;;;;;49.45;5.93;;;9.00;99.90;;;;;;5075506;28;20047;-83
2023/12/11 05:31:09;;;;;;;36.58;6.18;;;9.00;99.90;;;;;;5094088;28;20450;-84
2023/12/11 05:33:35;;;;;;;51.03;6.60;;;9.00;99.90;;;;;;5093446;28;20411;-82
2023/12/11 05:36:01;;;;;;;31.25;4.57;;;9.10;99.90;;;;;;5093595;28;20070;-82
2023/12/11 05:38:26;;;;;;;42.17;6.05;;;9.10;99.90;;;;;;5075559;28;20048;-84
2023/12/11 05:40:52;;;;;;;43.60;5.95;;;9.00;99.90;;;;;;5073831;28;20048;-83
2023/12/11 05:43:17;;;;;;;40.95;5.70;;;9.00;99.90;;;;;;5093089;28;20055;-90
2023/12/11 05:45:43;;;;;;;39.08;6.20;;;9.10;99.90;;;;;;5092677;28;20119;-82
2023/12/11 05:48:09;;;;;;;45.42;6.18;;;9.10;99.90;;;;;;5100459;28;20048;-81
2023/12/11 05:50:35;;;;;;;32.10;5.85;;;9.10;99.90;;;;;;5093603;28;20126;-85
2023/12/11 05:53:00;;;;;;;31.40;5.50;;;9.00;99.90;;;;;;5092203;28;20052;-81
2023/12/11 05:55:26;;;;;;;40.28;6.07;;;9.40;99.90;;;;;;5073912;28;20055;-83
2023/12/11 05:57:51;;;;;;;39.95;5.90;;;9.20;99.90;;;;;;5093036;28;20078;-89
2023/12/11 06:00:18;;;;;;;43.35;5.80;;;9.00;99.90;;;;;;5057750;28;20052;-81
2023/12/11 06:02:43;;;;;;;33.35;5.82;;;9.10;99.90;;;;;;5074789;28;20084;-82
2023/12/11 06:05:09;;;;;;;35.97;5.07;;;9.10;99.90;;;;;;5092253;28;20044;-85
2023/12/11 06:07:35;;;;;;;37.22;5.35;;;9.00;99.90;;;;;;5073282;28;20052;-81
2023/12/11 06:10:01;;;;;;;33.92;5.05;;;9.00;99.90;;;;;;5073146;28;20415;-86
2023/12/11 06:12:27;;;;;;;34.75;4.70;;;9.00;99.90;;;;;;5092395;28;20052;-83
2023/12/11 06:14:53;;;;;;;35.03;5.95;;;9.00;99.90;;;;;;5073921;28;20047;-81
2023/12/11 06:17:19;;;;;;;38.55;5.10;;;9.00;99.90;;;;;;5092745;28;20069;-82
2023/12/11 06:19:45;;;;;;;38.97;4.95;;;8.90;99.90;;;;;;5092321;28;20097;-91
2023/12/11 06:22:10;;;;;;;37.03;5.55;;;8.90;99.90;;;;;;5091820;28;20056;-84
2023/12/11 06:24:40;;;;;;;38.22;5.10;;;8.90;99.90;;;;;;5073031;28;20048;-84
2023/12/11 06:27:06;;;;;;;37.85;5.57;;;8.90;99.90;;;;;;5089585;28;20582;-81
2023/12/11 06:29:32;;;;;;;25.52;5.03;;;8.90;99.90;;;;;;5073264;28;20537;-84
2023/12/11 06:31:58;;;;;;;30.00;5.00;;;9.00;99.90;;;;;;5073436;28;20082;-83
2023/12/11 06:34:23;;;;;;;30.63;4.53;;;8.90;99.90;;;;;;5092264;28;20094;-87
2023/12/11 06:36:49;;;;;;;31.38;4.90;;;8.90;99.90;;;;;;5072937;28;20055;-83
2023/12/11 06:39:15;;;;;;;36.05;5.47;;;8.90;99.90;;;;;;5072966;28;20059;-81
2023/12/11 06:41:41;;;;;;;28.85;4.85;;;8.90;99.90;;;;;;5091440;28;20044;-88
2023/12/11 06:44:08;;;;;;;32.60;4.70;;;8.90;99.90;;;;;;5091348;28;20066;-86
2023/12/11 06:46:34;;;;;;;35.35;5.65;;;8.90;99.90;;;;;;5090559;28;20056;-82
2023/12/11 06:49:00;;;;;;;36.08;5.55;;;8.80;99.90;;;;;;5073527;28;20134;-83
2023/12/11 06:51:26;;;;;;;37.75;4.78;;;8.90;99.90;;;;;;5081447;28;20039;-82
2023/12/11 06:53:58;;;;;;;37.45;5.20;;;8.90;99.90;;;;;;5073989;28;20119;-82
2023/12/11 06:56:24;;;;;;;34.88;4.63;;;8.80;99.90;;;;;;5072212;28;20601;-81
2023/12/11 06:58:50;;;;;;;34.03;4.78;;;8.80;99.90;;;;;;5073319;28;20149;-81
2023/12/11 07:01:16;;;;;;;41.35;5.20;;;8.90;99.90;;;;;;5091167;28;20465;-88
2023/12/11 07:03:42;;;;;;;26.30;4.85;;;8.90;99.90;;;;;;5091202;28;20820;-81
2023/12/11 07:06:09;;;;;;;28.10;4.53;;;8.90;99.90;;;;;;5071618;28;20211;-81
2023/12/11 07:08:36;;;;;;;33.58;4.07;;;9.10;99.90;;;;;;5073566;28;20101;-81
2023/12/11 07:11:01;;;;;;;31.75;4.65;;;8.90;99.90;;;;;;5091731;28;20430;-82
2023/12/11 07:13:27;;;;;;;29.27;4.80;;;8.80;99.90;;;;;;5091774;28;20036;-83
2023/12/11 07:15:53;;;;;;;31.10;4.43;;;8.90;99.90;;;;;;5092027;28;20092;-81
2023/12/11 07:18:18;;;;;;;22.88;3.78;;;8.80;99.90;;;;;;5073620;28;20051;-80
2023/12/11 07:20:44;;;;;;;30.73;3.55;;;8.80;99.90;;;;;;5072947;28;20136;-82
2023/12/11 07:23:10;;;;;;;26.58;4.20;;;8.80;99.90;;;;;;5072941;28;20032;-86
2023/12/11 07:25:39;;;;;;;21.50;3.53;;;8.80;99.90;;;;;;5072863;28;20076;-88
2023/12/11 07:28:05;;;;;;;24.15;3.25;;;8.80;99.90;;;;;;5091147;28;20069;-80
2023/12/11 07:30:31;;;;;;;31.88;3.90;;;8.80;99.90;;;;;;5073106;28;20068;-84
2023/12/11 07:32:57;;;;;;;22.55;3.53;;;8.70;99.90;;;;;;5090530;28;20075;-85
2023/12/11 07:35:24;;;;;;;31.65;4.68;;;8.70;99.90;;;;;;5090733;28;20051;-82
2023/12/11 07:37:51;;;;;;;27.88;4.25;;;8.70;99.90;;;;;;5071880;28;20052;-81
2023/12/11 07:40:17;;;;;;;26.00;3.70;;;8.70;99.90;;;;;;5089976;28;20052;-82
2023/12/11 07:42:43;;;;;;;23.65;3.42;;;8.70;99.90;;;;;;5071610;28;20391;-82
2023/12/11 07:45:09;;;;;;;31.10;3.83;;;8.70;99.90;;;;;;5055089;28;20056;-82
2023/12/11 07:47:35;;;;;;;32.58;4.85;;;8.70;99.90;;;;;;5089768;28;20085;-82
2023/12/11 07:50:01;;;;;;;28.58;4.28;;;8.70;99.90;;;;;;5090141;28;20117;-82
2023/12/11 07:52:30;;;;;;;26.42;4.22;;;8.90;99.90;;;;;;5072427;28;20040;-82
2023/12/11 07:54:59;;;;;;;22.75;4.03;;;8.70;99.90;;;;;;5090085;28;20044;-82
2023/12/11 07:57:26;;;;;;;22.92;3.90;;;8.80;99.90;;;;;;5089871;28;20467;-82
2023/12/11 07:59:52;;;;;;;20.50;2.60;;;8.70;99.90;;;;;;5089252;28;20111;-82
2023/12/11 08:02:18;;;;;;;22.60;3.08;;;8.70;99.90;;;;;;5090105;28;20040;-82
2023/12/11 08:04:44;;;;;;;16.92;2.70;;;8.70;99.90;;;;;;5054760;28;20048;-81
2023/12/11 08:07:10;;;;;;;23.45;3.60;;;8.90;99.90;;;;;;5089606;28;20090;-81
2023/12/11 08:09:37;;;;;;;17.88;3.20;;;8.70;99.90;;;;;;5089371;28;20040;-81
2023/12/11 08:12:03;;;;;;;19.85;3.45;;;8.70;99.90;;;;;;5088820;28;20092;-82
2023/12/11 08:14:29;;;;;;;27.92;4.25;;;8.70;99.90;;;;;;5089048;28;20070;-82
2023/12/11 08:16:54;;;;;;;20.23;3.42;;;8.70;99.90;;;;;;5071247;28;20076;-82
2023/12/11 08:19:20;;;;;;;20.25;3.88;;;8.70;99.90;;;;;;5074801;28;20516;-82
2023/12/11 08:21:46;;;;;;;17.90;3.63;;;8.70;99.90;;;;;;5074847;28;20040;-81
2023/12/11 08:24:12;;;;;;;22.73;4.32;;;8.70;99.90;;;;;;5075224;28;20052;-81
2023/12/11 08:26:38;;;;;;;23.52;4.47;;;8.70;99.90;;;;;;5093507;28;20048;-81
2023/12/11 08:29:03;;;;;;;23.50;4.70;;;8.60;99.90;;;;;;5093092;28;20043;-81
2023/12/11 08:31:29;;;;;;;30.58;4.75;;;8.60;99.90;;;;;;5092828;28;20480;-83
2023/12/11 08:33:55;;;;;;;19.02;3.75;;;8.70;99.90;;;;;;5093528;28;20063;-83
2023/12/11 08:36:21;;;;;;;24.20;4.28;;;8.70;99.90;;;;;;5093557;28;20044;-82
2023/12/11 08:38:47;;;;;;;23.27;3.90;;;8.60;99.90;;;;;;5093055;28;20486;-82
2023/12/11 08:41:13;;;;;;;22.15;3.67;;;8.60;99.90;;;;;;5092989;28;20047;-82
2023/12/11 08:43:39;;;;;;;24.75;3.63;;;8.60;99.90;;;;;;5093227;28;20040;-83
2023/12/11 08:46:05;;;;;;;14.60;3.22;;;8.70;99.90;;;;;;5092810;28;20173;-81
2023/12/11 08:48:30;;;;;;;22.20;4.03;;;8.70;99.90;;;;;;5092927;28;20782;-82
2023/12/11 08:50:56;;;;;;;19.65;3.45;;;8.70;99.90;;;;;;5093251;28;20044;-82
2023/12/11 08:55:17;;;;;;;15.70;3.05;;;8.80;99.90;;;;;;5169385;27;20110;-78
2023/12/11 08:57:44;;;;;;;22.13;4.30;;;8.70;99.90;;;;;;5161858;27;20054;-80
2023/12/11 09:00:11;;;;;;;17.33;3.35;;;8.70;99.90;;;;;;5175508;27;20038;-91
2023/12/11 09:02:37;;;;;;;16.30;3.78;;;8.70;99.90;;;;;;5168770;27;20126;-79
2023/12/11 09:05:03;;;;;;;20.80;4.65;;;8.60;99.90;;;;;;5159327;27;20121;-80
2023/12/11 09:07:29;;;;;;;25.17;4.88;;;8.70;99.90;;;;;;5178419;27;20062;-79
2023/12/11 09:09:55;;;;;;;22.08;4.05;;;8.60;99.90;;;;;;5178040;27;20045;-79
2023/12/11 09:12:22;;;;;;;25.85;4.35;;;8.70;99.90;;;;;;5150398;27;20078;-80
2023/12/11 09:14:47;;;;;;;28.40;4.53;;;8.70;99.90;;;;;;5150643;27;20043;-79
2023/12/11 09:17:13;;;;;;;25.38;4.68;;;8.70;99.90;;;;;;5151504;27;20549;-79
2023/12/11 09:19:38;;;;;;;25.40;4.20;;;8.60;99.90;;;;;;5185375;27;20057;-80
2023/12/11 09:22:04;;;;;;;19.98;3.63;;;8.80;99.90;;;;;;5170524;27;20082;-79
2023/12/11 09:24:30;;;;;;;22.48;4.22;;;8.70;99.90;;;;;;5181263;27;20041;-79
2023/12/11 09:26:55;;;;;;;27.90;4.10;;;8.70;99.90;;;;;;5169459;27;20460;-84
2023/12/11 09:29:21;;;;;;;20.00;3.80;;;8.80;99.90;;;;;;5152813;27;20046;-79
2023/12/11 09:31:47;;;;;;;27.27;4.22;;;8.80;99.90;;;;;;5155308;27;20043;-78
2023/12/11 09:34:12;;;;;;;27.02;4.32;;;8.70;99.90;;;;;;5168440;27;20044;-78
2023/12/11 09:36:38;;;;;;;24.25;4.00;;;8.70;99.90;;;;;;5168298;27;20125;-78
2023/12/11 09:39:07;;;;;;;22.10;4.38;;;9.00;99.90;;;;;;5167990;27;20050;-77
2023/12/11 09:41:34;;;;;;;38.45;4.47;;;8.70;99.90;;;;;;5150053;27;20039;-78
2023/12/11 09:44:01;;;;;;;28.27;4.25;;;8.70;99.90;;;;;;5169237;27;20092;-80
2023/12/11 09:46:29;;;;;;;25.85;3.70;;;8.80;99.90;;;;;;5132580;27;20042;-80
2023/12/11 09:48:55;;;;;;;23.50;3.70;;;8.80;99.90;;;;;;5177140;27;20698;-79
2023/12/11 09:51:21;;;;;;;22.88;3.42;;;8.90;99.90;;;;;;5149549;27;20047;-80
2023/12/11 09:53:48;;;;;;;29.88;3.53;;;8.80;99.90;;;;;;5161272;27;20038;-79
2023/12/11 09:56:15;;;;;;;22.45;3.72;;;8.90;99.90;;;;;;5152723;27;20907;-79
2023/12/11 09:58:43;;;;;;;27.30;3.38;;;9.00;99.90;;;;;;5175790;27;20034;-78
2023/12/11 10:01:13;;;;;;;26.17;3.22;;;9.10;99.90;;;;;;5173689;27;20046;-79
2023/12/11 10:03:39;;;;;;;26.40;2.75;;;9.10;99.90;;;;;;5165870;27;20472;-79
2023/12/11 10:06:05;;;;;;;25.73;2.90;;;9.10;99.90;;;;;;5161002;27;20034;-79
2023/12/11 10:08:40;;;;;;;29.63;2.70;;;9.10;99.90;;;;;;5158575;27;20095;-80
2023/12/11 10:11:09;;;;;;;;;;;9.10;99.90;;;;;;5125477;27;20054;-78
2023/12/11 10:13:35;;;;;;;15.32;2.70;;;9.00;99.90;;;;;;5154845;27;19919;-79
2023/12/11 10:16:01;;;;;;;16.95;2.28;;;9.20;99.90;;;;;;5156055;27;20126;-79
2023/12/11 10:18:27;;;;;;;15.48;2.47;;;9.10;99.90;;;;;;5166331;27;20481;-79
2023/12/11 10:20:54;;;;;;;21.23;2.65;;;9.00;99.90;;;;;;5146794;27;20031;-79
2023/12/11 10:23:21;;;;;;;31.85;3.65;;;9.00;99.90;;;;;;5162722;27;20042;-79
2023/12/11 10:26:05;;;;;;;18.08;3.35;;;9.10;99.90;;;;;;5143555;27;20134;-79
2023/12/11 10:28:30;;;;;;;24.83;2.85;;;9.10;99.90;;;;;;5146733;27;20031;-80
2023/12/11 10:31:02;;;;;;;31.13;3.83;;;9.00;99.90;;;;;;5162728;27;20063;-80
2023/12/11 10:33:32;;;;;;;27.33;4.03;;;9.00;99.90;;;;;;5165433;27;20102;-80
2023/12/11 10:36:09;;;;;;;29.80;4.22;;;9.00;99.90;;;;;;5165651;27;20118;-80
2023/12/11 10:38:35;;;;;;;30.42;3.60;;;9.10;99.90;;;;;;5127595;27;20068;-79
2023/12/11 10:41:01;;;;;;;31.73;4.25;;;9.30;99.90;;;;;;5144014;27;20087;-80
2023/12/11 10:43:26;;;;;;;27.02;3.35;;;9.20;99.90;;;;;;5164105;27;20508;-79
2023/12/11 10:45:53;;;;;;;25.33;3.08;;;9.20;99.90;;;;;;5165573;27;20038;-79
2023/12/11 10:48:20;;;;;;;25.05;3.50;;;9.20;99.90;;;;;;5138062;27;20054;-79
2023/12/11 10:50:46;;;;;;;25.58;3.63;;;9.80;99.90;;;;;;5144750;27;20039;-78
2023/12/11 10:53:12;;;;;;;29.40;3.72;;;9.30;99.90;;;;;;5162130;27;20046;-79
2023/12/11 10:55:38;;;;;;;24.42;4.22;;;9.70;99.90;;;;;;5161722;27;20090;-79
2023/12/11 10:58:07;;;;;;;23.08;3.65;;;9.40;99.90;;;;;;5137333;27;20119;-79
2023/12/11 11:00:33;;;;;;;17.70;3.50;;;9.30;99.90;;;;;;5151657;27;20064;-80
2023/12/11 11:03:00;;;;;;;22.33;2.72;;;9.90;99.90;;;;;;5116869;27;20196;-80
2023/12/11 11:05:28;;;;;;;20.67;3.22;;;9.60;99.90;;;;;;5152192;27;20073;-81
2023/12/11 11:08:12;;;;;;;32.45;3.50;;;9.30;99.90;;;;;;5163909;27;20039;-79
2023/12/11 11:11:14;;;;;;;18.90;2.58;;;9.20;99.90;;;;;;5132726;27;20540;-79
2023/12/11 11:14:14;;;;;;;18.23;2.47;;;9.30;99.90;;;;;;5069132;28;20144;-79
2023/12/11 11:16:56;;;;;;;18.20;2.53;;;9.30;99.90;;;;;;5085801;28;20044;-91
2023/12/11 11:19:24;;;;;;;19.90;2.28;;;9.70;99.90;;;;;;5086271;28;20110;-79
2023/12/11 11:22:04;;;;;;;21.77;2.33;;;9.00;99.90;;;;;;5075011;28;20481;-79
2023/12/11 11:24:32;;;;;;;11.25;2.45;;;9.80;99.90;;;;;;5085683;28;20078;-79
2023/12/11 11:26:59;;;;;;;16.80;2.33;;;9.70;99.90;;;;;;5078086;28;20072;-79
2023/12/11 11:29:42;;;;;;;14.15;2.05;;;9.40;99.90;;;;;;5073961;28;20043;-81
2023/12/11 11:32:11;;;;;;;16.52;1.85;;;9.20;99.90;;;;;;5090085;28;20106;-83
2023/12/11 11:34:39;;;;;;;10.02;1.60;;;9.20;99.90;;;;;;5091755;28;20097;-80
2023/12/11 11:37:06;;;;;;;13.32;1.92;;;9.20;99.90;;;;;;5065586;28;20087;-82
2023/12/11 11:40:00;;;;;;;13.77;1.70;;;9.40;99.90;;;;;;5089996;28;20144;-80
2023/12/11 11:42:36;;;;;;;9.90;1.60;;;9.10;99.90;;;;;;5096837;28;20130;-81
2023/12/11 11:45:07;;;;;;;13.50;1.60;;;9.10;99.90;;;;;;5086601;28;20077;-79
2023/12/11 11:47:34;;;;;;;9.70;1.38;;;9.10;99.90;;;;;;5063552;28;20064;-77
2023/12/11 11:50:09;;;;;;;12.52;1.58;;;9.30;99.90;;;;;;5112037;27;20070;-80
2023/12/11 11:52:35;;;;;;;9.90;1.77;;;9.00;99.90;;;;;;5164688;27;20078;-80
2023/12/11 11:55:25;;;;;;;8.23;1.45;;;9.70;99.90;;;;;;5162244;27;20522;-87
2023/12/11 11:57:51;;;;;;;10.55;1.70;;;9.00;99.90;;;;;;5068040;28;20131;-80
2023/12/11 12:00:31;;;;;;;13.23;1.73;;;9.00;99.90;;;;;;5047936;28;20140;-80
2023/12/11 12:03:03;;;;;;;13.00;2.10;;;9.00;99.90;;;;;;5069950;28;20049;-88
2023/12/11 12:05:29;;;;;;;21.40;2.83;;;9.60;99.90;;;;;;5077366;28;20461;-88
2023/12/11 12:07:57;;;;;;;23.08;3.25;;;9.10;99.90;;;;;;5080587;28;20048;-78
2023/12/11 12:10:23;;;;;;;26.33;3.10;;;9.00;99.90;;;;;;5078089;28;20074;-83
2023/12/11 12:12:56;;;;;;;26.42;3.20;;;9.20;99.90;;;;;;5063899;28;20047;-81
2023/12/11 12:15:22;;;;;;;22.50;3.38;;;9.50;99.90;;;;;;5075989;28;20465;-85
2023/12/11 12:17:48;;;;;;;23.60;3.85;;;9.10;99.90;;;;;;5081871;28;20044;-80
2023/12/11 12:20:18;;;;;;;17.60;2.50;;;9.50;99.90;;;;;;5061079;28;20085;-77
2023/12/11 12:23:00;;;;;;;20.75;3.25;;;9.00;99.90;;;;;;5068082;28;20094;-85
2023/12/11 12:25:29;;;;;;;23.83;3.28;;;8.90;99.90;;;;;;5085607;28;20044;-79
2023/12/11 12:28:03;;;;;;;19.80;3.28;;;9.10;99.90;;;;;;5076092;28;20056;-78
2023/12/11 12:30:29;;;;;;;16.85;2.55;;;9.60;99.90;;;;;;5067751;28;20048;-87
2023/12/11 12:32:56;;;;;;;21.00;2.28;;;8.80;99.90;;;;;;5089168;28;20048;-79
2023/12/11 12:35:22;;;;;;;18.50;2.53;;;9.30;99.90;;;;;;5134717;27;20497;-78
2023/12/11 12:37:49;;;;;;;21.00;2.67;;;9.40;99.90;;;;;;5151434;27;20083;-79
2023/12/11 12:40:19;;;;;;;18.85;1.95;;;8.80;99.90;;;;;;5151335;27;20056;-79
2023/12/11 12:42:45;;;;;;;13.63;1.90;;;8.70;99.90;;;;;;5127247;27;20118;-81
2023/12/11 12:45:22;;;;;;;12.90;1.88;;;8.80;99.90;;;;;;5167944;27;20047;-78
2023/12/11 12:47:48;;;;;;;15.90;2.15;;;8.80;99.90;;;;;;5151293;27;20166;-76
2023/12/11 12:50:24;;;;;;;16.15;2.33;;;8.80;99.90;;;;;;5145910;27;20136;-78